sensor_id;sensor_type;location;lat;lon;timestamp;temperature;humidity
6206;DHT22;3136;48.788;9.772;2023-07-29T00:01:42;16.60;1.00
6206;DHT22;3136;48.788;9.772;2023-07-29T00:04:08;16.60;1.00
6206;DHT22;3136;48.788;9.772;2023-07-29T00:06:35;16.60;1.00
6206;DHT22;3136;48.788;9.772;2023-07-29T00:09:01;16.60;1.00
6206;DHT22;3136;48.788;9.772;2023-07-29T00:11:27;16.50;1.00
6206;DHT22;3136;48.788;9.772;2023-07-29T00:13:52;16.50;1.00
6206;DHT22;3136;48.788;9.772;2023-07-29T00:16:18;16.40;1.00
6206;DHT22;3136;48.788;9.772;2023-07-29T00:18:48;16.40;1.00
6206;DHT22;3136;48.788;9.772;2023-07-29T00:21:13;16.40;1.00
6206;DHT22;3136;48.788;9.772;2023-07-29T00:23:39;16.30;1.00
6206;DHT22;3136;48.788;9.772;2023-07-29T00:26:04;16.20;1.00
6206;DHT22;3136;48.788;9.772;2023-07-29T00:28:30;16.30;1.00
6206;DHT22;3136;48.788;9.772;2023-07-29T00:30:55;16.30;1.00
6206;DHT22;3136;48.788;9.772;2023-07-29T00:33:21;16.30;1.00
6206;DHT22;3136;48.788;9.772;2023-07-29T00:35:47;16.20;1.00
6206;DHT22;3136;48.788;9.772;2023-07-29T00:38:12;16.20;1.00
6206;DHT22;3136;48.788;9.772;2023-07-29T00:40:38;16.10;1.00
6206;DHT22;3136;48.788;9.772;2023-07-29T00:43:03;16.20;1.00
6206;DHT22;3136;48.788;9.772;2023-07-29T00:45:29;16.20;1.00
6206;DHT22;3136;48.788;9.772;2023-07-29T00:47:55;16.10;1.00
6206;DHT22;3136;48.788;9.772;2023-07-29T00:50:21;16.10;1.00
6206;DHT22;3136;48.788;9.772;2023-07-29T00:52:47;16.10;1.00
6206;DHT22;3136;48.788;9.772;2023-07-29T00:55:13;16.10;1.00
6206;DHT22;3136;48.788;9.772;2023-07-29T00:57:39;16.20;1.00
6206;DHT22;3136;48.788;9.772;2023-07-29T01:00:06;16.10;1.00
6206;DHT22;3136;48.788;9.772;2023-07-29T01:02:31;16.10;1.00
6206;DHT22;3136;48.788;9.772;2023-07-29T01:04:58;16.20;1.00
6206;DHT22;3136;48.788;9.772;2023-07-29T01:15:55;16.20;1.00
6206;DHT22;3136;48.788;9.772;2023-07-29T01:18:31;16.20;1.00
6206;DHT22;3136;48.788;9.772;2023-07-29T01:21:03;16.20;1.00
6206;DHT22;3136;48.788;9.772;2023-07-29T01:23:31;16.20;1.00
6206;DHT22;3136;48.788;9.772;2023-07-29T01:25:57;16.20;1.00
6206;DHT22;3136;48.788;9.772;2023-07-29T01:28:23;16.20;1.00
6206;DHT22;3136;48.788;9.772;2023-07-29T01:30:51;16.20;1.00
6206;DHT22;3136;48.788;9.772;2023-07-29T01:33:35;16.10;1.00
6206;DHT22;3136;48.788;9.772;2023-07-29T01:36:26;16.20;1.00
6206;DHT22;3136;48.788;9.772;2023-07-29T01:38:54;16.20;1.00
6206;DHT22;3136;48.788;9.772;2023-07-29T01:41:22;16.20;1.00
6206;DHT22;3136;48.788;9.772;2023-07-29T01:43:48;16.20;1.00
6206;DHT22;3136;48.788;9.772;2023-07-29T01:46:14;16.30;1.00
6206;DHT22;3136;48.788;9.772;2023-07-29T01:48:40;16.30;1.00
6206;DHT22;3136;48.788;9.772;2023-07-29T01:51:06;16.30;1.00
6206;DHT22;3136;48.788;9.772;2023-07-29T01:53:33;16.30;1.00
6206;DHT22;3136;48.788;9.772;2023-07-29T01:55:58;16.30;1.00
6206;DHT22;3136;48.788;9.772;2023-07-29T01:58:24;16.20;1.00
6206;DHT22;3136;48.788;9.772;2023-07-29T02:00:50;16.20;1.00
6206;DHT22;3136;48.788;9.772;2023-07-29T02:03:16;16.20;1.00
6206;DHT22;3136;48.788;9.772;2023-07-29T02:05:41;16.20;1.00
6206;DHT22;3136;48.788;9.772;2023-07-29T02:08:09;16.20;1.00
6206;DHT22;3136;48.788;9.772;2023-07-29T02:10:35;16.10;1.00
6206;DHT22;3136;48.788;9.772;2023-07-29T02:13:00;16.20;1.00
6206;DHT22;3136;48.788;9.772;2023-07-29T02:15:26;16.20;1.00
6206;DHT22;3136;48.788;9.772;2023-07-29T02:17:52;16.10;1.00
6206;DHT22;3136;48.788;9.772;2023-07-29T02:20:18;16.10;1.00
6206;DHT22;3136;48.788;9.772;2023-07-29T02:22:44;16.20;1.00
6206;DHT22;3136;48.788;9.772;2023-07-29T02:25:09;16.30;1.00
6206;DHT22;3136;48.788;9.772;2023-07-29T02:27:35;16.20;1.00
6206;DHT22;3136;48.788;9.772;2023-07-29T02:30:01;16.20;1.00
6206;DHT22;3136;48.788;9.772;2023-07-29T02:32:27;16.40;1.00
6206;DHT22;3136;48.788;9.772;2023-07-29T02:34:53;16.20;1.00
6206;DHT22;3136;48.788;9.772;2023-07-29T02:37:19;16.20;1.00
6206;DHT22;3136;48.788;9.772;2023-07-29T02:39:45;16.20;1.00
6206;DHT22;3136;48.788;9.772;2023-07-29T02:42:10;16.20;1.00
6206;DHT22;3136;48.788;9.772;2023-07-29T02:44:36;16.20;1.00
6206;DHT22;3136;48.788;9.772;2023-07-29T02:47:02;16.10;1.00
6206;DHT22;3136;48.788;9.772;2023-07-29T02:49:27;16.10;1.00
6206;DHT22;3136;48.788;9.772;2023-07-29T02:51:53;16.00;1.00
6206;DHT22;3136;48.788;9.772;2023-07-29T02:54:18;16.10;1.00
6206;DHT22;3136;48.788;9.772;2023-07-29T02:56:44;16.00;1.00
6206;DHT22;3136;48.788;9.772;2023-07-29T02:59:09;16.00;1.00
6206;DHT22;3136;48.788;9.772;2023-07-29T03:01:35;16.00;1.00
6206;DHT22;3136;48.788;9.772;2023-07-29T03:04:00;16.00;1.00
6206;DHT22;3136;48.788;9.772;2023-07-29T03:06:26;16.00;1.00
6206;DHT22;3136;48.788;9.772;2023-07-29T03:08:52;15.90;1.00
6206;DHT22;3136;48.788;9.772;2023-07-29T03:11:17;15.90;1.00
6206;DHT22;3136;48.788;9.772;2023-07-29T03:13:43;15.90;1.00
6206;DHT22;3136;48.788;9.772;2023-07-29T03:16:13;16.00;1.00
6206;DHT22;3136;48.788;9.772;2023-07-29T03:18:40;15.80;1.00
6206;DHT22;3136;48.788;9.772;2023-07-29T03:21:06;15.80;1.00
6206;DHT22;3136;48.788;9.772;2023-07-29T03:23:33;15.70;1.00
6206;DHT22;3136;48.788;9.772;2023-07-29T03:25:59;15.80;1.00
6206;DHT22;3136;48.788;9.772;2023-07-29T03:28:26;15.70;1.00
6206;DHT22;3136;48.788;9.772;2023-07-29T03:30:53;15.70;1.00
6206;DHT22;3136;48.788;9.772;2023-07-29T03:33:19;15.70;1.00
6206;DHT22;3136;48.788;9.772;2023-07-29T03:35:45;15.70;1.00
6206;DHT22;3136;48.788;9.772;2023-07-29T03:38:11;15.70;1.00
6206;DHT22;3136;48.788;9.772;2023-07-29T03:40:38;15.70;1.00
6206;DHT22;3136;48.788;9.772;2023-07-29T03:43:03;15.80;1.00
6206;DHT22;3136;48.788;9.772;2023-07-29T03:45:29;15.80;1.00
6206;DHT22;3136;48.788;9.772;2023-07-29T03:47:55;15.80;1.00
6206;DHT22;3136;48.788;9.772;2023-07-29T03:50:21;15.70;1.00
6206;DHT22;3136;48.788;9.772;2023-07-29T03:52:46;15.70;1.00
6206;DHT22;3136;48.788;9.772;2023-07-29T03:55:12;15.70;1.00
6206;DHT22;3136;48.788;9.772;2023-07-29T03:57:37;15.70;1.00
6206;DHT22;3136;48.788;9.772;2023-07-29T04:00:03;15.80;1.00
6206;DHT22;3136;48.788;9.772;2023-07-29T04:02:29;15.80;1.00
6206;DHT22;3136;48.788;9.772;2023-07-29T04:04:54;15.80;1.00
6206;DHT22;3136;48.788;9.772;2023-07-29T04:07:20;15.80;1.00
6206;DHT22;3136;48.788;9.772;2023-07-29T04:09:46;15.80;1.00
6206;DHT22;3136;48.788;9.772;2023-07-29T04:12:11;15.90;1.00
6206;DHT22;3136;48.788;9.772;2023-07-29T04:14:37;15.90;1.00
6206;DHT22;3136;48.788;9.772;2023-07-29T04:17:03;15.90;1.00
6206;DHT22;3136;48.788;9.772;2023-07-29T04:19:28;16.00;1.00
6206;DHT22;3136;48.788;9.772;2023-07-29T04:21:54;16.00;1.00
6206;DHT22;3136;48.788;9.772;2023-07-29T04:24:19;16.00;1.00
6206;DHT22;3136;48.788;9.772;2023-07-29T04:26:45;16.00;1.00
6206;DHT22;3136;48.788;9.772;2023-07-29T04:29:11;16.00;1.00
6206;DHT22;3136;48.788;9.772;2023-07-29T04:31:37;16.10;1.00
6206;DHT22;3136;48.788;9.772;2023-07-29T04:34:05;16.10;1.00
6206;DHT22;3136;48.788;9.772;2023-07-29T04:36:30;16.30;1.00
6206;DHT22;3136;48.788;9.772;2023-07-29T04:38:56;16.20;1.00
6206;DHT22;3136;48.788;9.772;2023-07-29T04:41:21;16.20;1.00
6206;DHT22;3136;48.788;9.772;2023-07-29T04:43:47;16.20;1.00
6206;DHT22;3136;48.788;9.772;2023-07-29T04:46:15;16.20;1.00
6206;DHT22;3136;48.788;9.772;2023-07-29T04:48:40;16.10;1.00
6206;DHT22;3136;48.788;9.772;2023-07-29T04:51:06;16.20;1.00
6206;DHT22;3136;48.788;9.772;2023-07-29T04:53:31;16.20;1.00
6206;DHT22;3136;48.788;9.772;2023-07-29T04:55:57;16.30;1.00
6206;DHT22;3136;48.788;9.772;2023-07-29T04:58:22;16.10;1.00
6206;DHT22;3136;48.788;9.772;2023-07-29T05:00:48;16.30;1.00
6206;DHT22;3136;48.788;9.772;2023-07-29T05:03:13;16.40;1.00
6206;DHT22;3136;48.788;9.772;2023-07-29T05:05:39;16.40;1.00
6206;DHT22;3136;48.788;9.772;2023-07-29T05:08:04;16.30;1.00
6206;DHT22;3136;48.788;9.772;2023-07-29T05:10:30;16.40;1.00
6206;DHT22;3136;48.788;9.772;2023-07-29T05:12:55;16.40;1.00
6206;DHT22;3136;48.788;9.772;2023-07-29T05:15:21;16.40;1.00
6206;DHT22;3136;48.788;9.772;2023-07-29T05:17:47;16.50;1.00
6206;DHT22;3136;48.788;9.772;2023-07-29T05:20:12;16.50;1.00
6206;DHT22;3136;48.788;9.772;2023-07-29T05:22:38;16.50;1.00
6206;DHT22;3136;48.788;9.772;2023-07-29T05:25:04;16.70;1.00
6206;DHT22;3136;48.788;9.772;2023-07-29T05:27:29;16.50;1.00
6206;DHT22;3136;48.788;9.772;2023-07-29T05:29:55;16.50;1.00
6206;DHT22;3136;48.788;9.772;2023-07-29T05:32:21;16.50;1.00
6206;DHT22;3136;48.788;9.772;2023-07-29T05:34:46;16.50;1.00
6206;DHT22;3136;48.788;9.772;2023-07-29T05:37:12;16.50;1.00
6206;DHT22;3136;48.788;9.772;2023-07-29T05:39:37;16.60;1.00
6206;DHT22;3136;48.788;9.772;2023-07-29T05:42:03;16.60;1.00
6206;DHT22;3136;48.788;9.772;2023-07-29T05:44:29;16.70;1.00
6206;DHT22;3136;48.788;9.772;2023-07-29T05:46:56;16.80;1.00
6206;DHT22;3136;48.788;9.772;2023-07-29T05:49:21;16.80;1.00
6206;DHT22;3136;48.788;9.772;2023-07-29T05:51:47;16.90;1.00
6206;DHT22;3136;48.788;9.772;2023-07-29T05:54:12;16.80;1.00
6206;DHT22;3136;48.788;9.772;2023-07-29T05:56:38;16.90;1.00
6206;DHT22;3136;48.788;9.772;2023-07-29T05:59:03;16.90;1.00
6206;DHT22;3136;48.788;9.772;2023-07-29T06:01:29;16.90;1.00
6206;DHT22;3136;48.788;9.772;2023-07-29T06:03:54;16.90;1.00
6206;DHT22;3136;48.788;9.772;2023-07-29T06:06:20;17.00;1.00
6206;DHT22;3136;48.788;9.772;2023-07-29T06:08:46;17.00;1.00
6206;DHT22;3136;48.788;9.772;2023-07-29T06:11:11;17.10;1.00
6206;DHT22;3136;48.788;9.772;2023-07-29T06:13:37;17.10;1.00
6206;DHT22;3136;48.788;9.772;2023-07-29T06:16:02;17.20;1.00
6206;DHT22;3136;48.788;9.772;2023-07-29T06:18:28;17.20;1.00
6206;DHT22;3136;48.788;9.772;2023-07-29T06:20:54;17.30;1.00
6206;DHT22;3136;48.788;9.772;2023-07-29T06:23:19;17.30;1.00
6206;DHT22;3136;48.788;9.772;2023-07-29T06:25:45;17.40;4.00
6206;DHT22;3136;48.788;9.772;2023-07-29T06:28:11;17.50;8.70
6206;DHT22;3136;48.788;9.772;2023-07-29T06:30:36;17.70;12.60
6206;DHT22;3136;48.788;9.772;2023-07-29T06:33:02;17.80;14.30
6206;DHT22;3136;48.788;9.772;2023-07-29T06:35:29;17.80;16.90
6206;DHT22;3136;48.788;9.772;2023-07-29T06:37:54;17.80;14.70
6206;DHT22;3136;48.788;9.772;2023-07-29T06:40:20;17.90;12.10
6206;DHT22;3136;48.788;9.772;2023-07-29T06:42:46;18.00;11.60
6206;DHT22;3136;48.788;9.772;2023-07-29T06:45:11;18.10;9.70
6206;DHT22;3136;48.788;9.772;2023-07-29T06:47:37;18.20;5.60
6206;DHT22;3136;48.788;9.772;2023-07-29T06:50:03;18.20;5.80
6206;DHT22;3136;48.788;9.772;2023-07-29T06:52:29;18.30;6.10
6206;DHT22;3136;48.788;9.772;2023-07-29T06:54:54;18.40;3.80
6206;DHT22;3136;48.788;9.772;2023-07-29T06:57:20;18.50;1.40
6206;DHT22;3136;48.788;9.772;2023-07-29T06:59:45;18.50;1.00
6206;DHT22;3136;48.788;9.772;2023-07-29T07:02:11;18.60;1.00
6206;DHT22;3136;48.788;9.772;2023-07-29T07:04:36;18.70;1.00
6206;DHT22;3136;48.788;9.772;2023-07-29T07:07:05;18.80;1.00
6206;DHT22;3136;48.788;9.772;2023-07-29T07:09:30;18.90;1.00
6206;DHT22;3136;48.788;9.772;2023-07-29T07:11:56;19.00;1.00
6206;DHT22;3136;48.788;9.772;2023-07-29T07:14:21;19.10;1.00
6206;DHT22;3136;48.788;9.772;2023-07-29T07:16:47;19.10;1.00
6206;DHT22;3136;48.788;9.772;2023-07-29T07:19:13;19.20;1.00
6206;DHT22;3136;48.788;9.772;2023-07-29T07:21:38;19.20;1.00
6206;DHT22;3136;48.788;9.772;2023-07-29T07:24:04;19.10;1.00
6206;DHT22;3136;48.788;9.772;2023-07-29T07:26:29;19.20;1.00
6206;DHT22;3136;48.788;9.772;2023-07-29T07:28:55;19.20;1.00
6206;DHT22;3136;48.788;9.772;2023-07-29T07:31:21;19.10;1.00
6206;DHT22;3136;48.788;9.772;2023-07-29T07:33:47;19.00;1.00
6206;DHT22;3136;48.788;9.772;2023-07-29T07:36:12;18.90;1.00
6206;DHT22;3136;48.788;9.772;2023-07-29T07:38:38;18.90;1.00
6206;DHT22;3136;48.788;9.772;2023-07-29T07:41:03;18.80;1.00
6206;DHT22;3136;48.788;9.772;2023-07-29T07:43:29;18.80;1.00
6206;DHT22;3136;48.788;9.772;2023-07-29T07:45:59;18.70;1.00
6206;DHT22;3136;48.788;9.772;2023-07-29T07:48:25;18.50;1.00
6206;DHT22;3136;48.788;9.772;2023-07-29T07:50:50;18.60;1.00
6206;DHT22;3136;48.788;9.772;2023-07-29T07:53:16;18.50;1.00
6206;DHT22;3136;48.788;9.772;2023-07-29T07:55:42;18.50;1.00
6206;DHT22;3136;48.788;9.772;2023-07-29T07:58:07;18.40;1.00
6206;DHT22;3136;48.788;9.772;2023-07-29T08:00:33;18.30;1.00
6206;DHT22;3136;48.788;9.772;2023-07-29T08:02:58;18.30;1.00
6206;DHT22;3136;48.788;9.772;2023-07-29T08:05:24;18.20;1.00
6206;DHT22;3136;48.788;9.772;2023-07-29T08:07:49;18.10;1.00
6206;DHT22;3136;48.788;9.772;2023-07-29T08:10:15;18.00;1.00
6206;DHT22;3136;48.788;9.772;2023-07-29T08:12:41;18.00;1.00
6206;DHT22;3136;48.788;9.772;2023-07-29T08:15:06;18.00;1.00
6206;DHT22;3136;48.788;9.772;2023-07-29T08:17:32;18.00;1.00
6206;DHT22;3136;48.788;9.772;2023-07-29T08:19:58;18.10;1.00
6206;DHT22;3136;48.788;9.772;2023-07-29T08:22:23;18.40;1.00
6206;DHT22;3136;48.788;9.772;2023-07-29T08:24:49;18.50;1.00
6206;DHT22;3136;48.788;9.772;2023-07-29T08:27:14;18.70;1.00
6206;DHT22;3136;48.788;9.772;2023-07-29T08:29:40;18.80;1.00
6206;DHT22;3136;48.788;9.772;2023-07-29T08:32:06;18.90;1.00
6206;DHT22;3136;48.788;9.772;2023-07-29T08:34:31;19.00;1.00
6206;DHT22;3136;48.788;9.772;2023-07-29T08:36:57;19.00;1.00
6206;DHT22;3136;48.788;9.772;2023-07-29T08:39:22;18.90;1.00
6206;DHT22;3136;48.788;9.772;2023-07-29T08:41:49;19.10;1.00
6206;DHT22;3136;48.788;9.772;2023-07-29T08:44:23;19.00;1.00
6206;DHT22;3136;48.788;9.772;2023-07-29T08:46:51;18.90;1.00
6206;DHT22;3136;48.788;9.772;2023-07-29T08:49:19;18.90;1.00
6206;DHT22;3136;48.788;9.772;2023-07-29T08:51:48;18.90;1.00
6206;DHT22;3136;48.788;9.772;2023-07-29T08:54:14;18.90;1.00
6206;DHT22;3136;48.788;9.772;2023-07-29T08:56:41;19.00;1.00
6206;DHT22;3136;48.788;9.772;2023-07-29T08:59:11;19.20;1.00
6206;DHT22;3136;48.788;9.772;2023-07-29T09:01:38;19.30;1.00
6206;DHT22;3136;48.788;9.772;2023-07-29T09:04:04;19.30;1.00
6206;DHT22;3136;48.788;9.772;2023-07-29T09:06:31;19.40;1.00
6206;DHT22;3136;48.788;9.772;2023-07-29T09:08:58;19.40;1.00
6206;DHT22;3136;48.788;9.772;2023-07-29T09:11:24;19.50;1.00
6206;DHT22;3136;48.788;9.772;2023-07-29T09:13:50;19.50;1.00
6206;DHT22;3136;48.788;9.772;2023-07-29T09:16:15;19.60;1.00
6206;DHT22;3136;48.788;9.772;2023-07-29T09:18:41;19.70;1.00
6206;DHT22;3136;48.788;9.772;2023-07-29T09:21:07;19.70;1.00
6206;DHT22;3136;48.788;9.772;2023-07-29T09:23:43;19.80;1.00
6206;DHT22;3136;48.788;9.772;2023-07-29T09:26:09;20.00;1.00
6206;DHT22;3136;48.788;9.772;2023-07-29T09:28:37;20.00;1.00
6206;DHT22;3136;48.788;9.772;2023-07-29T09:31:03;20.00;1.00
6206;DHT22;3136;48.788;9.772;2023-07-29T09:33:29;20.30;1.00
6206;DHT22;3136;48.788;9.772;2023-07-29T09:35:56;20.40;1.00
6206;DHT22;3136;48.788;9.772;2023-07-29T09:38:28;20.50;1.00
6206;DHT22;3136;48.788;9.772;2023-07-29T09:40:57;20.80;1.00
6206;DHT22;3136;48.788;9.772;2023-07-29T09:43:29;21.00;1.00
6206;DHT22;3136;48.788;9.772;2023-07-29T09:45:55;21.10;99.90
6206;DHT22;3136;48.788;9.772;2023-07-29T09:48:23;21.10;99.90
6206;DHT22;3136;48.788;9.772;2023-07-29T09:50:49;21.30;56.30
6206;DHT22;3136;48.788;9.772;2023-07-29T09:53:15;21.50;1.00
6206;DHT22;3136;48.788;9.772;2023-07-29T09:55:46;21.80;1.00
6206;DHT22;3136;48.788;9.772;2023-07-29T09:58:12;21.80;99.90
6206;DHT22;3136;48.788;9.772;2023-07-29T10:00:38;22.10;1.00
6206;DHT22;3136;48.788;9.772;2023-07-29T10:03:06;22.10;1.00
6206;DHT22;3136;48.788;9.772;2023-07-29T10:05:32;22.20;67.10
6206;DHT22;3136;48.788;9.772;2023-07-29T10:08:00;22.30;99.90
6206;DHT22;3136;48.788;9.772;2023-07-29T10:10:27;22.50;99.90
6206;DHT22;3136;48.788;9.772;2023-07-29T10:12:54;22.50;1.00
6206;DHT22;3136;48.788;9.772;2023-07-29T10:15:20;22.50;99.90
6206;DHT22;3136;48.788;9.772;2023-07-29T10:17:46;22.50;1.00
6206;DHT22;3136;48.788;9.772;2023-07-29T10:20:12;22.70;1.00
6206;DHT22;3136;48.788;9.772;2023-07-29T10:22:39;22.70;99.90
6206;DHT22;3136;48.788;9.772;2023-07-29T10:25:08;22.90;1.00
6206;DHT22;3136;48.788;9.772;2023-07-29T10:27:43;23.10;61.80
6206;DHT22;3136;48.788;9.772;2023-07-29T10:30:11;23.40;40.20
6206;DHT22;3136;48.788;9.772;2023-07-29T10:32:42;23.80;1.00
6206;DHT22;3136;48.788;9.772;2023-07-29T10:35:14;23.90;1.00
6206;DHT22;3136;48.788;9.772;2023-07-29T10:37:41;24.10;1.00
6206;DHT22;3136;48.788;9.772;2023-07-29T10:40:08;24.30;1.00
6206;DHT22;3136;48.788;9.772;2023-07-29T10:42:35;24.30;1.00
6206;DHT22;3136;48.788;9.772;2023-07-29T10:45:17;24.20;1.00
6206;DHT22;3136;48.788;9.772;2023-07-29T10:47:43;24.50;1.00
6206;DHT22;3136;48.788;9.772;2023-07-29T10:50:20;24.90;1.00
6206;DHT22;3136;48.788;9.772;2023-07-29T10:52:50;25.30;99.90
6206;DHT22;3136;48.788;9.772;2023-07-29T10:55:34;25.00;99.90
6206;DHT22;3136;48.788;9.772;2023-07-29T11:00:38;24.50;99.90
6206;DHT22;3136;48.788;9.772;2023-07-29T11:03:07;24.40;99.90
6206;DHT22;3136;48.788;9.772;2023-07-29T11:13:30;22.60;99.90
6206;DHT22;3136;48.788;9.772;2023-07-29T11:15:56;22.10;99.90
6206;DHT22;3136;48.788;9.772;2023-07-29T11:18:33;21.80;99.90
6206;DHT22;3136;48.788;9.772;2023-07-29T11:21:00;21.60;99.90
6206;DHT22;3136;48.788;9.772;2023-07-29T11:23:34;21.40;1.00
6206;DHT22;3136;48.788;9.772;2023-07-29T11:26:01;21.40;1.00
6206;DHT22;3136;48.788;9.772;2023-07-29T11:28:27;21.40;1.00
6206;DHT22;3136;48.788;9.772;2023-07-29T11:30:57;21.20;1.00
6206;DHT22;3136;48.788;9.772;2023-07-29T11:33:24;21.10;1.00
6206;DHT22;3136;48.788;9.772;2023-07-29T11:35:51;21.40;1.00
6206;DHT22;3136;48.788;9.772;2023-07-29T11:38:17;22.10;1.00
6206;DHT22;3136;48.788;9.772;2023-07-29T11:40:57;22.90;1.00
6206;DHT22;3136;48.788;9.772;2023-07-29T11:43:23;23.70;99.90
6206;DHT22;3136;48.788;9.772;2023-07-29T11:45:49;24.20;99.90
6206;DHT22;3136;48.788;9.772;2023-07-29T11:48:14;24.50;99.90
6206;DHT22;3136;48.788;9.772;2023-07-29T11:50:40;24.60;99.90
6206;DHT22;3136;48.788;9.772;2023-07-29T11:53:06;24.50;99.90
6206;DHT22;3136;48.788;9.772;2023-07-29T11:55:33;24.40;99.90
6206;DHT22;3136;48.788;9.772;2023-07-29T11:57:59;24.20;99.90
6206;DHT22;3136;48.788;9.772;2023-07-29T12:00:26;24.00;99.90
6206;DHT22;3136;48.788;9.772;2023-07-29T12:02:52;24.10;99.90
6206;DHT22;3136;48.788;9.772;2023-07-29T12:05:20;24.20;99.90
6206;DHT22;3136;48.788;9.772;2023-07-29T12:07:47;24.30;99.90
6206;DHT22;3136;48.788;9.772;2023-07-29T12:10:13;24.30;99.90
6206;DHT22;3136;48.788;9.772;2023-07-29T12:12:49;24.40;99.90
6206;DHT22;3136;48.788;9.772;2023-07-29T12:15:29;24.40;99.90
6206;DHT22;3136;48.788;9.772;2023-07-29T12:17:58;24.60;99.90
6206;DHT22;3136;48.788;9.772;2023-07-29T12:20:24;24.70;99.90
6206;DHT22;3136;48.788;9.772;2023-07-29T12:22:54;24.90;99.90
6206;DHT22;3136;48.788;9.772;2023-07-29T12:25:20;25.20;99.90
6206;DHT22;3136;48.788;9.772;2023-07-29T12:27:47;25.30;99.90
6206;DHT22;3136;48.788;9.772;2023-07-29T12:30:12;25.40;99.90
6206;DHT22;3136;48.788;9.772;2023-07-29T12:32:45;25.30;99.90
6206;DHT22;3136;48.788;9.772;2023-07-29T12:35:10;25.30;99.90
6206;DHT22;3136;48.788;9.772;2023-07-29T12:37:36;25.70;99.90
6206;DHT22;3136;48.788;9.772;2023-07-29T12:40:04;26.50;99.90
6206;DHT22;3136;48.788;9.772;2023-07-29T12:42:30;27.60;99.90
6206;DHT22;3136;48.788;9.772;2023-07-29T12:44:55;28.10;99.90
6206;DHT22;3136;48.788;9.772;2023-07-29T12:47:21;28.80;99.90
6206;DHT22;3136;48.788;9.772;2023-07-29T12:49:46;29.30;80.80
6206;DHT22;3136;48.788;9.772;2023-07-29T12:52:12;29.60;75.40
6206;DHT22;3136;48.788;9.772;2023-07-29T12:54:37;29.80;87.40
6206;DHT22;3136;48.788;9.772;2023-07-29T12:57:03;29.70;88.90
6206;DHT22;3136;48.788;9.772;2023-07-29T12:59:29;29.40;62.10
6206;DHT22;3136;48.788;9.772;2023-07-29T13:01:55;29.40;74.20
6206;DHT22;3136;48.788;9.772;2023-07-29T13:04:20;29.30;62.10
6206;DHT22;3136;48.788;9.772;2023-07-29T13:06:46;29.10;63.20
6206;DHT22;3136;48.788;9.772;2023-07-29T13:09:11;28.50;67.30
6206;DHT22;3136;48.788;9.772;2023-07-29T13:11:37;28.10;83.30
6206;DHT22;3136;48.788;9.772;2023-07-29T13:14:03;27.80;94.80
6206;DHT22;3136;48.788;9.772;2023-07-29T13:16:28;27.80;99.90
6206;DHT22;3136;48.788;9.772;2023-07-29T13:18:54;27.70;97.80
6206;DHT22;3136;48.788;9.772;2023-07-29T13:21:21;27.80;91.10
6206;DHT22;3136;48.788;9.772;2023-07-29T13:23:46;27.80;73.60
6206;DHT22;3136;48.788;9.772;2023-07-29T13:26:12;27.70;89.90
6206;DHT22;3136;48.788;9.772;2023-07-29T13:28:37;27.60;93.20
6206;DHT22;3136;48.788;9.772;2023-07-29T13:31:03;27.50;91.00
6206;DHT22;3136;48.788;9.772;2023-07-29T13:33:29;27.20;79.10
6206;DHT22;3136;48.788;9.772;2023-07-29T13:35:59;27.00;95.50
6206;DHT22;3136;48.788;9.772;2023-07-29T13:38:25;26.80;94.90
6206;DHT22;3136;48.788;9.772;2023-07-29T13:40:50;26.80;98.90
6206;DHT22;3136;48.788;9.772;2023-07-29T13:43:16;26.80;99.90
6206;DHT22;3136;48.788;9.772;2023-07-29T13:45:42;27.10;98.20
6206;DHT22;3136;48.788;9.772;2023-07-29T13:48:07;27.40;89.20
6206;DHT22;3136;48.788;9.772;2023-07-29T13:50:33;27.50;81.70
6206;DHT22;3136;48.788;9.772;2023-07-29T13:52:58;27.70;69.10
6206;DHT22;3136;48.788;9.772;2023-07-29T13:55:24;27.90;76.90
6206;DHT22;3136;48.788;9.772;2023-07-29T13:57:49;27.70;64.70
6206;DHT22;3136;48.788;9.772;2023-07-29T14:00:15;27.50;65.60
6206;DHT22;3136;48.788;9.772;2023-07-29T14:02:41;27.00;55.70
6206;DHT22;3136;48.788;9.772;2023-07-29T14:05:08;26.70;70.80
6206;DHT22;3136;48.788;9.772;2023-07-29T14:07:33;26.50;77.70
6206;DHT22;3136;48.788;9.772;2023-07-29T14:09:59;26.40;68.40
6206;DHT22;3136;48.788;9.772;2023-07-29T14:12:24;26.40;80.40
6206;DHT22;3136;48.788;9.772;2023-07-29T14:14:50;26.30;75.80
6206;DHT22;3136;48.788;9.772;2023-07-29T14:17:15;26.10;68.20
6206;DHT22;3136;48.788;9.772;2023-07-29T14:19:41;25.80;90.60
6206;DHT22;3136;48.788;9.772;2023-07-29T14:22:06;25.50;65.00
6206;DHT22;3136;48.788;9.772;2023-07-29T14:24:32;25.40;72.50
6206;DHT22;3136;48.788;9.772;2023-07-29T14:26:57;25.40;87.40
6206;DHT22;3136;48.788;9.772;2023-07-29T14:29:23;25.50;86.20
6206;DHT22;3136;48.788;9.772;2023-07-29T14:31:49;25.80;81.20
6206;DHT22;3136;48.788;9.772;2023-07-29T14:34:14;25.80;68.80
6206;DHT22;3136;48.788;9.772;2023-07-29T14:36:40;25.90;48.20
6206;DHT22;3136;48.788;9.772;2023-07-29T14:39:05;25.90;54.40
6206;DHT22;3136;48.788;9.772;2023-07-29T14:41:31;25.70;55.60
6206;DHT22;3136;48.788;9.772;2023-07-29T14:43:57;25.60;71.00
6206;DHT22;3136;48.788;9.772;2023-07-29T14:46:22;25.50;83.60
6206;DHT22;3136;48.788;9.772;2023-07-29T14:48:48;25.50;58.00
6206;DHT22;3136;48.788;9.772;2023-07-29T14:51:14;25.50;67.20
6206;DHT22;3136;48.788;9.772;2023-07-29T14:53:40;25.50;73.60
6206;DHT22;3136;48.788;9.772;2023-07-29T14:56:05;25.60;57.00
6206;DHT22;3136;48.788;9.772;2023-07-29T14:58:31;25.70;64.70
6206;DHT22;3136;48.788;9.772;2023-07-29T15:00:57;25.80;66.50
6206;DHT22;3136;48.788;9.772;2023-07-29T15:03:23;25.80;71.90
6206;DHT22;3136;48.788;9.772;2023-07-29T15:05:49;26.00;63.90
6206;DHT22;3136;48.788;9.772;2023-07-29T15:08:15;26.10;54.60
6206;DHT22;3136;48.788;9.772;2023-07-29T15:10:40;26.10;40.50
6206;DHT22;3136;48.788;9.772;2023-07-29T15:13:10;26.10;45.40
6206;DHT22;3136;48.788;9.772;2023-07-29T15:15:35;26.00;41.90
6206;DHT22;3136;48.788;9.772;2023-07-29T15:18:01;25.90;42.10
6206;DHT22;3136;48.788;9.772;2023-07-29T15:20:26;25.80;41.00
6206;DHT22;3136;48.788;9.772;2023-07-29T15:22:52;25.70;40.90
6206;DHT22;3136;48.788;9.772;2023-07-29T15:25:17;25.50;37.60
6206;DHT22;3136;48.788;9.772;2023-07-29T15:27:43;25.50;44.40
6206;DHT22;3136;48.788;9.772;2023-07-29T15:30:08;25.30;43.00
6206;DHT22;3136;48.788;9.772;2023-07-29T15:32:34;25.20;44.00
6206;DHT22;3136;48.788;9.772;2023-07-29T15:35:00;25.10;39.20
6206;DHT22;3136;48.788;9.772;2023-07-29T15:37:25;25.00;44.80
6206;DHT22;3136;48.788;9.772;2023-07-29T15:39:51;25.00;45.80
6206;DHT22;3136;48.788;9.772;2023-07-29T15:42:17;25.10;45.80
6206;DHT22;3136;48.788;9.772;2023-07-29T15:44:42;25.20;46.70
6206;DHT22;3136;48.788;9.772;2023-07-29T15:47:08;25.20;39.90
6206;DHT22;3136;48.788;9.772;2023-07-29T15:49:34;25.30;39.80
6206;DHT22;3136;48.788;9.772;2023-07-29T15:52:00;25.30;40.90
6206;DHT22;3136;48.788;9.772;2023-07-29T15:54:26;25.30;39.10
6206;DHT22;3136;48.788;9.772;2023-07-29T15:56:51;25.20;41.10
6206;DHT22;3136;48.788;9.772;2023-07-29T15:59:17;25.40;42.50
6206;DHT22;3136;48.788;9.772;2023-07-29T16:01:42;25.30;38.30
6206;DHT22;3136;48.788;9.772;2023-07-29T16:04:08;25.50;41.00
6206;DHT22;3136;48.788;9.772;2023-07-29T16:06:34;25.50;37.20
6206;DHT22;3136;48.788;9.772;2023-07-29T16:09:01;25.60;36.80
6206;DHT22;3136;48.788;9.772;2023-07-29T16:11:31;25.70;35.40
6206;DHT22;3136;48.788;9.772;2023-07-29T16:13:57;25.70;35.70
6206;DHT22;3136;48.788;9.772;2023-07-29T16:16:23;25.70;37.00
6206;DHT22;3136;48.788;9.772;2023-07-29T16:18:48;25.70;31.90
6206;DHT22;3136;48.788;9.772;2023-07-29T16:21:14;25.50;35.60
6206;DHT22;3136;48.788;9.772;2023-07-29T16:23:40;25.50;37.10
6206;DHT22;3136;48.788;9.772;2023-07-29T16:26:05;25.30;37.80